createdAt,value
2022-08-11T00:02:06.710Z,20.79
2022-08-11T00:04:46.647Z,20.76
2022-08-11T00:07:20.142Z,20.73
2022-08-11T00:09:51.156Z,20.75
2022-08-11T00:12:21.659Z,20.77
2022-08-11T00:15:01.385Z,20.77
2022-08-11T00:17:34.470Z,20.77
2022-08-11T00:20:12.649Z,20.81
2022-08-11T00:22:50.727Z,20.86
2022-08-11T00:25:23.773Z,20.91
2022-08-11T00:27:54.059Z,20.93
2022-08-11T00:30:24.714Z,21.01
2022-08-11T00:32:59.087Z,20.97
2022-08-11T00:35:51.851Z,21.00
2022-08-11T00:38:34.967Z,21.15
2022-08-11T00:41:21.378Z,21.21
2022-08-11T00:44:09.248Z,21.29
2022-08-11T00:46:54.089Z,21.34
2022-08-11T00:49:41.516Z,21.35
2022-08-11T00:52:30.742Z,21.41
2022-08-11T00:56:05.297Z,21.40
2022-08-11T00:59:34.178Z,21.40
2022-08-11T01:02:20.281Z,21.36
2022-08-11T01:05:31.937Z,21.37
2022-08-11T01:09:01.881Z,21.37
2022-08-11T01:16:19.727Z,21.43
2022-08-11T01:20:47.805Z,21.45
2022-08-11T01:23:19.825Z,21.55
2022-08-11T01:26:33.116Z,21.62
2022-08-11T01:29:49.117Z,21.65
2022-08-11T01:33:16.691Z,21.62
2022-08-11T01:36:41.250Z,21.64
2022-08-11T01:40:11.040Z,21.64
2022-08-11T01:43:34.940Z,21.62
2022-08-11T01:46:14.248Z,21.70
2022-08-11T01:48:52.902Z,21.63
2022-08-11T01:51:47.840Z,21.58
2022-08-11T01:54:29.734Z,21.60
2022-08-11T01:57:16.439Z,21.57
2022-08-11T01:59:52.959Z,21.52
2022-08-11T02:02:50.191Z,21.51
2022-08-11T02:05:44.728Z,21.51
2022-08-11T02:08:34.241Z,21.52
2022-08-11T02:11:35.614Z,21.52
2022-08-11T02:14:29.509Z,21.48
2022-08-11T02:17:17.054Z,21.43
2022-08-11T02:20:12.084Z,21.42
2022-08-11T02:23:09.832Z,21.38
2022-08-11T02:25:54.242Z,21.37
2022-08-11T02:28:38.350Z,21.35
2022-08-11T02:32:11.076Z,21.29
2022-08-11T02:34:39.740Z,21.18
2022-08-11T02:37:24.436Z,21.18
2022-08-11T02:40:21.088Z,21.11
2022-08-11T02:43:20.493Z,21.11
2022-08-11T02:46:06.851Z,21.08
2022-08-11T02:49:05.860Z,21.03
2022-08-11T02:51:43.994Z,20.87
2022-08-11T02:54:26.425Z,20.89
2022-08-11T02:57:04.314Z,20.86
2022-08-11T02:59:53.866Z,20.88
2022-08-11T03:02:59.943Z,20.88
2022-08-11T03:05:52.864Z,20.80
2022-08-11T03:08:51.398Z,20.78
2022-08-11T03:12:00.257Z,20.81
2022-08-11T03:14:53.449Z,20.76
2022-08-11T03:17:33.828Z,20.66
2022-08-11T03:20:21.983Z,20.56
2022-08-11T03:23:01.906Z,20.52
2022-08-11T03:25:40.752Z,20.47
2022-08-11T03:28:26.081Z,20.42
2022-08-11T03:31:19.353Z,20.39
2022-08-11T03:34:07.277Z,20.34
2022-08-11T03:37:39.557Z,20.30
2022-08-11T03:40:44.171Z,20.27
2022-08-11T03:43:29.683Z,20.26
2022-08-11T03:46:10.859Z,20.20
2022-08-11T03:48:52.178Z,20.20
2022-08-11T03:51:44.898Z,20.26
2022-08-11T03:54:32.613Z,20.27
2022-08-11T03:57:52.386Z,20.30
2022-08-11T04:01:17.030Z,20.26
2022-08-11T04:04:51.282Z,20.29
2022-08-11T04:08:00.843Z,20.33
2022-08-11T04:11:24.435Z,20.31
2022-08-11T04:14:51.254Z,20.33
2022-08-11T04:18:00.920Z,20.35
2022-08-11T04:21:24.891Z,20.37
2022-08-11T04:24:48.394Z,20.29
2022-08-11T04:28:05.200Z,20.26
2022-08-11T04:31:01.021Z,20.24
2022-08-11T04:34:06.884Z,20.29
2022-08-11T04:37:37.188Z,20.30
2022-08-11T04:40:40.085Z,20.26
2022-08-11T04:44:06.646Z,20.20
2022-08-11T04:47:58.115Z,20.21
2022-08-11T04:51:16.646Z,20.28
2022-08-11T04:54:14.477Z,20.28
2022-08-11T04:57:00.724Z,20.29
2022-08-11T05:00:08.544Z,20.25
2022-08-11T05:03:28.737Z,20.23
2022-08-11T05:06:49.917Z,20.27
2022-08-11T05:09:39.520Z,20.31
2022-08-11T05:12:44.966Z,20.39
2022-08-11T05:15:31.771Z,20.55
2022-08-11T05:18:32.832Z,20.66
2022-08-11T05:21:23.421Z,20.76
2022-08-11T05:24:23.094Z,20.90
2022-08-11T05:27:11.306Z,21.01
2022-08-11T05:30:00.704Z,21.10
2022-08-11T05:32:50.843Z,21.20
2022-08-11T05:36:00.734Z,21.31
2022-08-11T05:38:41.983Z,21.42
2022-08-11T05:41:28.338Z,21.54
2022-08-11T05:44:20.552Z,21.58
2022-08-11T05:47:05.798Z,21.70
2022-08-11T05:49:50.152Z,21.83
2022-08-11T05:52:41.626Z,21.92
2022-08-11T05:55:26.703Z,22.03
2022-08-11T05:58:05.851Z,22.14
2022-08-11T06:00:45.912Z,22.28
2022-08-11T06:03:28.294Z,22.45
2022-08-11T06:06:01.360Z,22.60
2022-08-11T06:08:36.128Z,22.71
2022-08-11T06:11:09.041Z,22.84
2022-08-11T06:13:48.018Z,23.03
2022-08-11T06:16:25.576Z,23.20
2022-08-11T06:18:56.866Z,23.37
2022-08-11T06:21:27.889Z,23.51
2022-08-11T06:23:59.568Z,23.66
2022-08-11T06:26:30.381Z,23.81
2022-08-11T06:29:03.948Z,24.02
2022-08-11T06:31:36.720Z,24.21
2022-08-11T06:34:27.360Z,24.38
2022-08-11T06:37:11.596Z,24.55
2022-08-11T06:39:48.805Z,24.66
2022-08-11T06:42:39.404Z,24.84
2022-08-11T06:45:28.713Z,25.01
2022-08-11T06:48:03.098Z,25.17
2022-08-11T06:50:47.188Z,25.37
2022-08-11T06:53:21.431Z,25.63
2022-08-11T06:56:05.331Z,25.89
2022-08-11T06:58:54.768Z,26.04
2022-08-11T07:01:46.770Z,26.12
2022-08-11T07:04:43.354Z,26.40
2022-08-11T07:08:34.114Z,26.70
2022-08-11T07:12:02.736Z,27.03
2022-08-11T07:14:46.987Z,27.18
2022-08-11T07:17:24.307Z,27.32
2022-08-11T07:20:11.566Z,27.60
2022-08-11T07:22:55.116Z,27.83
2022-08-11T07:25:38.601Z,28.02
2022-08-11T07:28:28.080Z,28.20
2022-08-11T07:31:06.698Z,28.39
2022-08-11T07:34:08.240Z,28.65
2022-08-11T07:36:43.429Z,28.81
2022-08-11T07:39:23.815Z,29.03
2022-08-11T07:41:57.398Z,29.25
2022-08-11T07:44:34.704Z,29.52
2022-08-11T07:47:18.125Z,29.61
2022-08-11T07:50:05.983Z,29.80
2022-08-11T07:52:40.824Z,30.00
2022-08-11T07:55:17.593Z,30.23
2022-08-11T07:58:15.974Z,30.50
2022-08-11T08:01:10.727Z,30.66
2022-08-11T08:04:06.499Z,30.85
2022-08-11T08:06:53.356Z,30.98
2022-08-11T08:09:38.435Z,31.09
2022-08-11T08:12:23.401Z,31.18
2022-08-11T08:15:07.312Z,31.25
2022-08-11T08:18:09.137Z,31.59
2022-08-11T08:20:45.656Z,31.89
2022-08-11T08:23:33.183Z,32.33
2022-08-11T08:26:26.480Z,32.41
2022-08-11T08:29:18.398Z,32.88
2022-08-11T08:31:48.585Z,33.68
2022-08-11T08:34:19.864Z,34.59
2022-08-11T08:36:53.326Z,35.41
2022-08-11T08:39:26.617Z,35.86
2022-08-11T08:42:00.493Z,36.64
2022-08-11T08:44:41.438Z,37.32
2022-08-11T08:47:42.365Z,37.69
2022-08-11T08:50:16.784Z,37.83
2022-08-11T08:52:56.540Z,38.18
2022-08-11T08:55:30.644Z,38.61
2022-08-11T08:58:03.185Z,39.07
2022-08-11T09:00:43.782Z,38.59
2022-08-11T09:03:40.644Z,37.10
2022-08-11T09:06:05.055Z,37.60
2022-08-11T09:08:36.498Z,37.23
2022-08-11T09:11:22.102Z,35.98
2022-08-11T09:14:04.761Z,36.67
2022-08-11T09:16:39.115Z,35.34
2022-08-11T09:19:11.244Z,33.89
2022-08-11T09:21:49.122Z,34.74
2022-08-11T09:24:33.732Z,36.63
2022-08-11T09:27:09.742Z,37.43
2022-08-11T09:29:41.659Z,37.91
2022-08-11T09:32:11.943Z,37.22
2022-08-11T09:34:42.309Z,36.47
2022-08-11T09:37:53.768Z,36.18
2022-08-11T09:40:33.882Z,35.27
2022-08-11T09:43:22.511Z,37.02
2022-08-11T09:45:55.493Z,37.96
2022-08-11T09:48:29.049Z,38.58
2022-08-11T09:51:02.812Z,38.93
2022-08-11T09:53:41.618Z,39.38
2022-08-11T09:56:34.025Z,39.78
2022-08-11T09:59:08.644Z,40.21
2022-08-11T10:01:47.284Z,40.13
2022-08-11T10:04:21.805Z,40.28
2022-08-11T10:07:04.399Z,40.27
2022-08-11T10:09:42.124Z,40.50
2022-08-11T10:12:17.925Z,40.53
2022-08-11T10:15:10.284Z,40.52
2022-08-11T10:18:01.578Z,40.82
2022-08-11T10:20:33.646Z,40.85
2022-08-11T10:23:17.818Z,40.87
2022-08-11T10:26:00.956Z,40.70
2022-08-11T10:28:49.693Z,40.62
2022-08-11T10:31:56.933Z,40.67
2022-08-11T10:34:29.222Z,40.74
2022-08-11T10:37:03.219Z,39.99
2022-08-11T10:39:33.731Z,38.97
2022-08-11T10:42:25.797Z,39.47
2022-08-11T10:45:30.897Z,39.95
2022-08-11T10:48:02.456Z,40.08
2022-08-11T10:50:45.877Z,40.08
2022-08-11T10:53:29.917Z,40.50
2022-08-11T10:56:14.024Z,40.77
2022-08-11T10:58:51.660Z,40.61
2022-08-11T11:01:26.903Z,40.29
2022-08-11T11:04:05.284Z,39.59
2022-08-11T11:06:44.963Z,40.10
2022-08-11T11:09:22.006Z,40.94
2022-08-11T11:12:09.701Z,41.44
2022-08-11T11:14:59.413Z,41.32
2022-08-11T11:17:47.270Z,41.96
2022-08-11T11:20:34.593Z,41.89
2022-08-11T11:23:29.698Z,40.69
2022-08-11T11:26:38.511Z,39.95
2022-08-11T11:29:25.274Z,41.05
2022-08-11T11:32:19.894Z,40.88
2022-08-11T11:35:12.538Z,42.23
2022-08-11T11:38:03.504Z,42.90
2022-08-11T11:40:37.588Z,43.07
2022-08-11T11:43:08.809Z,43.22
2022-08-11T11:45:39.542Z,43.51
2022-08-11T11:48:10.597Z,43.36
2022-08-11T11:50:41.900Z,43.37
2022-08-11T11:53:16.217Z,43.58
2022-08-11T11:55:46.786Z,43.96
2022-08-11T11:58:29.743Z,44.03
2022-08-11T12:01:13.782Z,44.23
2022-08-11T12:03:45.295Z,44.33
2022-08-11T12:06:17.379Z,44.07
2022-08-11T12:08:53.621Z,43.70
2022-08-11T12:11:39.698Z,44.46
2022-08-11T12:14:12.707Z,44.69
2022-08-11T12:16:45.850Z,44.70
2022-08-11T12:19:18.865Z,44.54
2022-08-11T12:22:02.079Z,43.90
2022-08-11T12:24:50.418Z,43.67
2022-08-11T12:27:25.261Z,43.62
2022-08-11T12:30:00.203Z,43.67
2022-08-11T12:32:35.210Z,43.39
2022-08-11T12:35:06.587Z,42.93
2022-08-11T12:37:43.809Z,42.90
2022-08-11T12:41:11.921Z,42.81
2022-08-11T12:43:46.511Z,42.35
2022-08-11T12:46:32.749Z,41.85
2022-08-11T12:49:22.288Z,41.83
2022-08-11T12:52:14.965Z,41.81
2022-08-11T12:54:57.211Z,42.05
2022-08-11T12:57:47.978Z,42.18
2022-08-11T13:00:32.495Z,42.65
2022-08-11T13:03:16.422Z,42.63
2022-08-11T13:05:49.712Z,42.67
2022-08-11T13:08:21.129Z,42.92
2022-08-11T13:11:07.167Z,43.39
2022-08-11T13:13:54.497Z,44.26
2022-08-11T13:16:29.664Z,44.25
2022-08-11T13:19:02.435Z,44.54
2022-08-11T13:21:33.604Z,45.08
2022-08-11T13:24:04.930Z,45.05
2022-08-11T13:26:49.396Z,45.30
2022-08-11T13:29:26.417Z,45.08
2022-08-11T13:32:00.383Z,45.09
2022-08-11T13:34:34.445Z,45.26
2022-08-11T13:37:06.398Z,45.17
2022-08-11T13:39:39.722Z,45.03
2022-08-11T13:42:10.453Z,44.78
2022-08-11T13:44:45.719Z,44.73
2022-08-11T13:47:18.788Z,44.81
2022-08-11T13:49:49.041Z,45.19
2022-08-11T13:52:21.027Z,45.87
2022-08-11T13:54:54.388Z,45.62
2022-08-11T13:58:06.694Z,45.17
2022-08-11T14:00:23.397Z,45.27
2022-08-11T14:03:00.412Z,45.83
2022-08-11T14:05:36.195Z,46.17
2022-08-11T14:08:37.670Z,46.54
2022-08-11T14:12:21.618Z,46.65
2022-08-11T14:14:16.952Z,46.45
2022-08-11T14:16:51.786Z,46.76
2022-08-11T14:19:27.887Z,45.91
2022-08-11T14:22:11.554Z,45.97
2022-08-11T14:24:45.406Z,45.63
2022-08-11T14:28:30.144Z,45.76
2022-08-11T14:30:30.716Z,45.88
2022-08-11T14:33:16.525Z,46.10
2022-08-11T14:35:48.788Z,46.40
2022-08-11T14:38:20.941Z,46.33
2022-08-11T14:41:04.238Z,46.33
2022-08-11T14:44:12.492Z,46.25
2022-08-11T14:46:50.789Z,46.41
2022-08-11T14:49:24.639Z,46.54
2022-08-11T14:51:57.346Z,46.44
2022-08-11T14:54:43.851Z,46.19
2022-08-11T14:57:14.494Z,45.73
2022-08-11T14:59:48.623Z,45.80
2022-08-11T15:02:32.199Z,45.96
2022-08-11T15:05:08.171Z,45.80
2022-08-11T15:07:39.629Z,45.44
2022-08-11T15:10:13.860Z,45.22
2022-08-11T15:12:45.185Z,45.16
2022-08-11T15:15:29.228Z,44.76
2022-08-11T15:18:02.540Z,44.19
2022-08-11T15:20:53.840Z,44.18
2022-08-11T15:23:36.915Z,43.93
2022-08-11T15:26:12.280Z,43.85
2022-08-11T15:28:59.741Z,43.17
2022-08-11T15:31:49.555Z,43.03
2022-08-11T15:34:37.078Z,42.37
2022-08-11T15:37:25.762Z,41.76
2022-08-11T15:40:31.539Z,41.30
2022-08-11T15:43:22.720Z,40.58
2022-08-11T15:46:02.433Z,39.70
2022-08-11T15:48:46.371Z,38.64
2022-08-11T15:51:25.137Z,37.95
2022-08-11T15:54:03.708Z,37.29
2022-08-11T15:56:41.551Z,36.63
2022-08-11T15:59:41.827Z,35.86
2022-08-11T16:02:29.741Z,35.15
2022-08-11T16:05:02.137Z,34.61
2022-08-11T16:07:39.111Z,34.20
2022-08-11T16:10:19.341Z,33.80
2022-08-11T16:13:09.344Z,33.42
2022-08-11T16:16:12.578Z,33.05
2022-08-11T16:18:51.618Z,32.75
2022-08-11T16:21:35.011Z,32.62
2022-08-11T16:27:03.233Z,32.40
2022-08-11T16:27:14.279Z,32.10
2022-08-11T16:29:49.024Z,31.98
2022-08-11T16:32:24.181Z,31.90
2022-08-11T16:35:13.695Z,31.77
2022-08-11T16:37:59.175Z,31.69
2022-08-11T16:40:30.239Z,31.61
2022-08-11T16:43:22.303Z,31.44
2022-08-11T16:46:05.535Z,31.21
2022-08-11T16:48:39.910Z,31.02
2022-08-11T16:51:11.427Z,31.02
2022-08-11T16:53:59.929Z,30.97
2022-08-11T16:56:38.681Z,30.90
2022-08-11T16:59:17.673Z,30.84
2022-08-11T17:01:54.987Z,30.82
2022-08-11T17:04:46.692Z,30.70
2022-08-11T17:07:42.092Z,30.63
2022-08-11T17:10:53.459Z,30.46
2022-08-11T17:13:32.285Z,30.40
2022-08-11T17:16:11.784Z,30.37
2022-08-11T17:18:51.253Z,30.29
2022-08-11T17:21:26.396Z,30.13
2022-08-11T17:24:05.062Z,30.03
2022-08-11T17:26:59.760Z,29.95
2022-08-11T17:29:53.651Z,29.96
2022-08-11T17:32:57.060Z,29.87
2022-08-11T17:35:35.968Z,29.78
2022-08-11T17:38:10.778Z,29.71
2022-08-11T17:41:02.911Z,29.67
2022-08-11T17:43:48.992Z,29.49
2022-08-11T17:46:33.160Z,29.38
2022-08-11T17:49:07.731Z,29.36
2022-08-11T17:51:51.555Z,29.33
2022-08-11T17:54:36.487Z,29.18
2022-08-11T17:57:21.236Z,29.13
2022-08-11T17:59:57.984Z,29.04
2022-08-11T18:02:49.426Z,28.92
2022-08-11T18:05:27.155Z,28.78
2022-08-11T18:08:18.958Z,28.75
2022-08-11T18:11:03.495Z,28.70
2022-08-11T18:13:49.736Z,28.66
2022-08-11T18:16:34.424Z,28.59
2022-08-11T18:19:17.074Z,28.54
2022-08-11T18:22:15.810Z,28.41
2022-08-11T18:25:05.825Z,28.34
2022-08-11T18:27:51.606Z,28.29
2022-08-11T18:30:34.554Z,28.25
2022-08-11T18:33:44.658Z,28.18
2022-08-11T18:36:27.200Z,28.07
2022-08-11T18:39:14.236Z,27.99
2022-08-11T18:41:58.522Z,27.92
2022-08-11T18:44:45.840Z,27.80
2022-08-11T18:47:30.748Z,27.77
2022-08-11T18:50:25.111Z,27.71
2022-08-11T18:53:23.769Z,27.58
2022-08-11T18:56:09.629Z,27.47
2022-08-11T18:58:57.078Z,27.34
2022-08-11T19:01:45.566Z,27.22
2022-08-11T19:04:30.090Z,27.16
2022-08-11T19:07:18.786Z,27.10
2022-08-11T19:10:05.779Z,26.97
2022-08-11T19:12:56.939Z,26.85
2022-08-11T19:15:40.622Z,26.78
2022-08-11T19:18:23.933Z,26.70
2022-08-11T19:21:08.019Z,26.69
2022-08-11T19:23:58.913Z,26.64
2022-08-11T19:26:43.791Z,26.68
2022-08-11T19:30:07.758Z,26.62
2022-08-11T19:32:35.580Z,26.54
2022-08-11T19:35:19.417Z,26.48
2022-08-11T19:38:04.624Z,26.40
2022-08-11T19:40:48.555Z,26.38
2022-08-11T19:43:34.046Z,26.34
2022-08-11T19:46:22.407Z,26.37
2022-08-11T19:49:09.340Z,26.34
2022-08-11T19:51:54.622Z,26.26
2022-08-11T19:54:41.596Z,26.28
2022-08-11T19:57:24.676Z,26.29
2022-08-11T20:00:07.592Z,26.25
2022-08-11T20:02:52.918Z,26.21
2022-08-11T20:05:37.059Z,26.13
2022-08-11T20:08:22.293Z,26.06
2022-08-11T20:11:07.426Z,25.98
2022-08-11T20:13:52.902Z,25.92
2022-08-11T20:16:38.623Z,25.77
2022-08-11T20:19:26.160Z,25.74
2022-08-11T20:22:30.319Z,25.67
2022-08-11T20:25:13.077Z,25.62
2022-08-11T20:27:57.795Z,25.50
2022-08-11T20:30:40.563Z,25.52
2022-08-11T20:33:24.667Z,25.43
2022-08-11T20:36:10.156Z,25.49
2022-08-11T20:38:54.606Z,25.48
2022-08-11T20:41:58.643Z,25.50
2022-08-11T20:44:44.956Z,25.44
2022-08-11T20:47:30.012Z,25.42
2022-08-11T20:50:20.319Z,25.39
2022-08-11T20:53:07.461Z,25.34
2022-08-11T20:55:53.078Z,25.34
2022-08-11T21:01:42.188Z,25.26
2022-08-11T21:04:24.983Z,25.21
2022-08-11T21:07:08.639Z,25.19
2022-08-11T21:10:01.163Z,25.12
2022-08-11T21:12:55.972Z,25.08
2022-08-11T21:16:01.332Z,25.02
2022-08-11T21:18:46.581Z,24.96
2022-08-11T21:21:30.990Z,24.84
2022-08-11T21:24:34.203Z,24.70
2022-08-11T21:27:24.719Z,24.58
2022-08-11T21:30:08.418Z,24.49
2022-08-11T21:32:52.497Z,24.38
2022-08-11T21:35:36.378Z,24.27
2022-08-11T21:38:28.811Z,24.13
2022-08-11T21:41:19.085Z,24.04
2022-08-11T21:44:08.539Z,23.96
2022-08-11T21:46:53.675Z,23.88
2022-08-11T21:49:38.705Z,23.83
2022-08-11T21:52:21.708Z,23.83
2022-08-11T21:55:05.553Z,23.71
2022-08-11T21:57:50.280Z,23.60
2022-08-11T22:00:35.829Z,23.53
2022-08-11T22:03:20.552Z,23.51
2022-08-11T22:06:03.795Z,23.47
2022-08-11T22:08:46.498Z,23.41
2022-08-11T22:11:32.356Z,23.38
2022-08-11T22:14:16.446Z,23.36
2022-08-11T22:17:01.974Z,23.30
2022-08-11T22:19:45.249Z,23.22
2022-08-11T22:22:29.031Z,23.20
2022-08-11T22:25:16.531Z,23.11
2022-08-11T22:28:01.550Z,23.10
2022-08-11T22:30:44.426Z,23.03
2022-08-11T22:33:30.135Z,22.97
2022-08-11T22:36:14.822Z,22.94
2022-08-11T22:39:00.929Z,22.91
2022-08-11T22:41:44.091Z,22.85
2022-08-11T22:44:27.428Z,22.78
2022-08-11T22:47:13.513Z,22.70
2022-08-11T22:50:03.045Z,22.63
2022-08-11T22:52:46.499Z,22.60
2022-08-11T22:55:30.574Z,22.57
2022-08-11T22:58:13.872Z,22.56
2022-08-11T23:00:56.910Z,22.52
2022-08-11T23:03:40.950Z,22.48
2022-08-11T23:06:26.940Z,22.46
2022-08-11T23:09:10.636Z,22.40
2022-08-11T23:12:05.977Z,22.33
2022-08-11T23:14:50.997Z,22.28
2022-08-11T23:17:33.820Z,22.21
2022-08-11T23:20:40.982Z,22.22
2022-08-11T23:23:23.087Z,22.16
2022-08-11T23:26:08.064Z,22.13
2022-08-11T23:28:51.125Z,22.08
2022-08-11T23:31:50.388Z,22.06
2022-08-11T23:35:03.022Z,22.08
2022-08-11T23:37:39.873Z,22.01
2022-08-11T23:40:26.897Z,21.95
2022-08-11T23:43:10.488Z,21.85
2022-08-11T23:45:53.246Z,21.81
2022-08-11T23:48:37.415Z,21.77
2022-08-11T23:51:21.620Z,21.74
2022-08-11T23:54:07.653Z,21.70
2022-08-11T23:56:54.128Z,21.68
2022-08-11T23:59:37.221Z,21.63
